Meteo Giornale » Osservazioni meteo Francia » Melun

ore: 00:00 - Osservazioni Meteo Melun
Lat. 48° 37' N Lon. 2° 41' E Alt. 95 metri s.l.m.

molto_nuvoloso Europe/Paris

12 °C

Molto Nuvoloso

Temp. 24 Ore

10 °C

20 °C

Sud-Ovest

29.6 Km/h

Dew point 8 °C

Umidità 76 %

Visibilità  10 Km

Il sole sorge alle ore 07:39

Il sole tramonta alle ore 19:42

Data e Ora Cielo e Fenomeni T °C DP °C Um. % Pres. hPa Vis. km Vento km/h
Oggi h: 00:00 molto_nuvoloso Molto Nuvoloso 12 8 76 1000 10 SO 29.6
Ieri h: 23:00 molto_nuvoloso Molto Nuvoloso 12 10 87 1000 10 SO 25.9
Ieri h: 22:30 molto_nuvoloso Molto Nuvoloso 12 11 93 1000 10 S/SO 24
Ieri h: 22:00 sereno Sereno 12 11 93 1000 10 S/SO 20.3
Ieri h: 21:30 coperto_pioggia Pioggia Debole 12 12 100 1000 10 S/SO 22.2
Ieri h: 21:00 coperto_pioggia Pioggia Debole 13 12 93 1000 10 S/SO 22.2
Ieri h: 20:30 coperto_pioggia Pioggia Debole 13 11 87 999 10 SO 31.5
Ieri h: 20:00 coperto_pioggia Pioggia Debole 14 11 82 999 10 S/SO 31.5
Ieri h: 19:30 molto_nuvoloso Molto Nuvoloso 16 12 77 999 10 S/SO 31.5
Ieri h: 19:00 molto_nuvoloso Molto Nuvoloso 16 12 77 999 10 S/SO 27.8
Ieri h: 18:00 sereno Sereno 17 11 67 999 10 S 35.2
Ieri h: 17:00 sereno Sereno 17 12 72 1001 10 S 27.8
Ieri h: 16:30 sereno Sereno 16 13 82 1001 10 S/SO 27.8
Ieri h: 16:00 sereno Sereno 16 13 82 1002 10 S/SO 29.6
Ieri h: 15:30 coperto_pioggia Pioggia Debole 16 12 77 1003 10 S/SO 29.6
Ieri h: 15:00 coperto_pioggia Pioggia Debole 19 12 63 1002 10 S/SO 33.3
Ieri h: 14:30 coperto Coperto 19 11 59 1003 10 S/SO 31.5
Ieri h: 14:00 nuvoloso Nuvoloso 20 12 59 1003 10 S 31.5
Ieri h: 13:30 molto_nuvoloso Molto Nuvoloso 19 11 59 1004 10 S 29.6
Ieri h: 13:00 coperto Coperto 20 12 59 1004 10 S 29.6
Ieri h: 12:30 molto_nuvoloso Molto Nuvoloso 18 12 67 1005 10 S 27.8
Ieri h: 12:00 coperto Coperto 17 12 72 1005 10 S 25.9
Ieri h: 11:30 sereno Sereno 15 12 82 1006 10 S 18.5
Ieri h: 11:00 sereno Sereno 14 11 82 1006 10 S/SE 16.7
Ieri h: 10:30 sereno Sereno 13 11 87 1006 10 S 16.7
Ieri h: 09:30 sereno Sereno 12 10 87 1006 10 S 18.5
Ieri h: 09:00 sereno Sereno 12 11 93 1006 10 S 16.7
Ieri h: 08:30 sereno Sereno 11 10 93 1007 10 S 14.8
Ieri h: 08:00 sereno Sereno 10 9 93 1007 10 S 13
Ieri h: 07:30 sereno Sereno 10 9 93 1007 10 S 7.4
Ieri h: 07:00 sereno Sereno 10 10 100 1007 10 S 13
Ieri h: 06:00 sereno Sereno 10 10 100 1007 10 S 9.3
Ieri h: 05:00 sereno Sereno 10 10 100 1007 10 S/SO 11.1
Ieri h: 04:30 sereno Sereno 11 10 93 1007 10 S/SO 13
Ieri h: 04:00 sereno Sereno 11 10 93 1007 10 S/SO 11.1
Ieri h: 03:30 sereno Sereno 11 10 93 1007 10 S 11.1
Ieri h: 03:00 sereno Sereno 12 10 87 1007 10 SO 11.1
Ieri h: 02:30 sereno Sereno 13 11 87 1007 10 O/SO 11.1
Ieri h: 02:00 sereno Sereno 13 11 87 1006 10 O/SO 14.8
Ieri h: 01:30 molto_nuvoloso Molto Nuvoloso 13 11 87 1006 10 O 13
Ieri h: 01:00 nuvoloso Nuvoloso 13 11 87 1005 10 O 16.7